sensor_id;sensor_type;location;lat;lon;timestamp;P1;durP1;ratioP1;P2;durP2;ratioP2
40629;SDS011;26329;40.388;-3.710;2024-02-23T00:05:37;16.67;;;13.57;;
40629;SDS011;26329;40.388;-3.710;2024-02-23T00:15:39;15.60;;;13.10;;
40629;SDS011;26329;40.388;-3.710;2024-02-23T00:25:41;14.90;;;12.87;;
40629;SDS011;26329;40.388;-3.710;2024-02-23T00:35:42;13.80;;;12.17;;
40629;SDS011;26329;40.388;-3.710;2024-02-23T00:45:43;13.90;;;12.43;;
40629;SDS011;26329;40.388;-3.710;2024-02-23T00:55:45;13.30;;;11.93;;
40629;SDS011;26329;40.388;-3.710;2024-02-23T01:05:46;13.13;;;11.80;;
40629;SDS011;26329;40.388;-3.710;2024-02-23T01:15:48;13.30;;;11.97;;
40629;SDS011;26329;40.388;-3.710;2024-02-23T01:25:51;13.00;;;11.73;;
40629;SDS011;26329;40.388;-3.710;2024-02-23T01:35:52;13.30;;;11.97;;
40629;SDS011;26329;40.388;-3.710;2024-02-23T01:45:54;13.23;;;11.90;;
40629;SDS011;26329;40.388;-3.710;2024-02-23T01:55:55;13.40;;;12.03;;
40629;SDS011;26329;40.388;-3.710;2024-02-23T02:05:57;13.37;;;12.00;;
40629;SDS011;26329;40.388;-3.710;2024-02-23T02:16:00;13.27;;;11.93;;
40629;SDS011;26329;40.388;-3.710;2024-02-23T02:26:04;12.47;;;11.20;;
40629;SDS011;26329;40.388;-3.710;2024-02-23T02:36:06;11.97;;;10.77;;
40629;SDS011;26329;40.388;-3.710;2024-02-23T02:46:07;12.37;;;11.10;;
40629;SDS011;26329;40.388;-3.710;2024-02-23T02:56:08;12.40;;;11.13;;
40629;SDS011;26329;40.388;-3.710;2024-02-23T03:06:10;11.33;;;10.20;;
40629;SDS011;26329;40.388;-3.710;2024-02-23T03:16:14;11.57;;;10.40;;
40629;SDS011;26329;40.388;-3.710;2024-02-23T03:26:16;11.30;;;10.17;;
40629;SDS011;26329;40.388;-3.710;2024-02-23T03:36:17;11.40;;;10.23;;
40629;SDS011;26329;40.388;-3.710;2024-02-23T03:46:19;10.50;;;9.47;;
40629;SDS011;26329;40.388;-3.710;2024-02-23T03:56:22;10.57;;;9.50;;
40629;SDS011;26329;40.388;-3.710;2024-02-23T04:06:23;10.57;;;9.50;;
40629;SDS011;26329;40.388;-3.710;2024-02-23T04:16:24;10.30;;;9.30;;
40629;SDS011;26329;40.388;-3.710;2024-02-23T04:26:28;10.33;;;9.30;;
40629;SDS011;26329;40.388;-3.710;2024-02-23T04:36:29;10.03;;;9.07;;
40629;SDS011;26329;40.388;-3.710;2024-02-23T04:46:31;10.30;;;9.30;;
40629;SDS011;26329;40.388;-3.710;2024-02-23T04:56:34;10.27;;;9.27;;
40629;SDS011;26329;40.388;-3.710;2024-02-23T05:06:36;10.47;;;9.40;;
40629;SDS011;26329;40.388;-3.710;2024-02-23T05:16:37;10.27;;;9.27;;
40629;SDS011;26329;40.388;-3.710;2024-02-23T05:26:40;10.13;;;9.13;;
40629;SDS011;26329;40.388;-3.710;2024-02-23T05:36:42;10.40;;;9.37;;
40629;SDS011;26329;40.388;-3.710;2024-02-23T05:46:44;10.37;;;9.33;;
40629;SDS011;26329;40.388;-3.710;2024-02-23T05:56:46;10.67;;;9.60;;
40629;SDS011;26329;40.388;-3.710;2024-02-23T06:06:47;10.43;;;9.40;;
40629;SDS011;26329;40.388;-3.710;2024-02-23T06:16:49;9.83;;;8.87;;
40629;SDS011;26329;40.388;-3.710;2024-02-23T06:26:52;10.23;;;9.27;;
40629;SDS011;26329;40.388;-3.710;2024-02-23T06:36:54;10.33;;;9.30;;
40629;SDS011;26329;40.388;-3.710;2024-02-23T06:46:55;9.83;;;8.87;;
40629;SDS011;26329;40.388;-3.710;2024-02-23T06:56:56;9.97;;;8.97;;
40629;SDS011;26329;40.388;-3.710;2024-02-23T07:06:58;9.80;;;8.80;;
40629;SDS011;26329;40.388;-3.710;2024-02-23T07:16:59;9.73;;;8.77;;
40629;SDS011;26329;40.388;-3.710;2024-02-23T07:27:01;9.43;;;8.50;;
40629;SDS011;26329;40.388;-3.710;2024-02-23T07:37:02;9.13;;;8.23;;
40629;SDS011;26329;40.388;-3.710;2024-02-23T07:47:04;8.83;;;7.97;;
40629;SDS011;26329;40.388;-3.710;2024-02-23T07:57:05;9.10;;;8.20;;
40629;SDS011;26329;40.388;-3.710;2024-02-23T08:07:07;9.03;;;8.17;;
40629;SDS011;26329;40.388;-3.710;2024-02-23T08:17:11;8.93;;;8.10;;
40629;SDS011;26329;40.388;-3.710;2024-02-23T08:27:15;9.27;;;8.37;;
40629;SDS011;26329;40.388;-3.710;2024-02-23T08:37:18;8.87;;;8.03;;
40629;SDS011;26329;40.388;-3.710;2024-02-23T08:47:19;8.80;;;7.97;;
40629;SDS011;26329;40.388;-3.710;2024-02-23T08:57:21;9.40;;;8.50;;
40629;SDS011;26329;40.388;-3.710;2024-02-23T09:07:25;10.07;;;9.13;;
40629;SDS011;26329;40.388;-3.710;2024-02-23T09:17:28;10.33;;;9.30;;
40629;SDS011;26329;40.388;-3.710;2024-02-23T09:27:31;10.67;;;9.60;;
40629;SDS011;26329;40.388;-3.710;2024-02-23T09:37:34;11.77;;;10.57;;
40629;SDS011;26329;40.388;-3.710;2024-02-23T09:47:39;12.93;;;11.60;;
40629;SDS011;26329;40.388;-3.710;2024-02-23T09:57:43;13.65;;;12.20;;
40629;SDS011;26329;40.388;-3.710;2024-02-23T10:07:48;14.00;;;12.20;;
40629;SDS011;26329;40.388;-3.710;2024-02-23T10:17:54;13.17;;;11.80;;
40629;SDS011;26329;40.388;-3.710;2024-02-23T10:27:56;13.27;;;11.90;;
40629;SDS011;26329;40.388;-3.710;2024-02-23T10:37:59;13.47;;;12.10;;
40629;SDS011;26329;40.388;-3.710;2024-02-23T10:48:04;14.07;;;12.27;;
40629;SDS011;26329;40.388;-3.710;2024-02-23T11:17:17;17.07;;;13.67;;
40629;SDS011;26329;40.388;-3.710;2024-02-23T11:27:21;24.43;;;15.77;;
40629;SDS011;26329;40.388;-3.710;2024-02-23T11:53:23;18.90;;;14.10;;
40629;SDS011;26329;40.388;-3.710;2024-02-23T12:03:27;26.10;;;16.30;;
40629;SDS011;26329;40.388;-3.710;2024-02-23T12:13:30;28.50;;;16.90;;
40629;SDS011;26329;40.388;-3.710;2024-02-23T12:23:44;25.10;;;16.13;;
40629;SDS011;26329;40.388;-3.710;2024-02-23T12:33:47;25.80;;;16.17;;
40629;SDS011;26329;40.388;-3.710;2024-02-23T12:43:50;24.00;;;15.83;;
40629;SDS011;26329;40.388;-3.710;2024-02-23T12:53:55;22.40;;;15.17;;
40629;SDS011;26329;40.388;-3.710;2024-02-23T13:03:58;25.37;;;16.03;;
40629;SDS011;26329;40.388;-3.710;2024-02-23T13:14:01;25.20;;;15.90;;
40629;SDS011;26329;40.388;-3.710;2024-02-23T13:24:04;23.57;;;15.60;;
40629;SDS011;26329;40.388;-3.710;2024-02-23T13:34:08;20.50;;;14.75;;
40629;SDS011;26329;40.388;-3.710;2024-02-23T13:44:12;20.57;;;14.57;;
40629;SDS011;26329;40.388;-3.710;2024-02-23T13:54:15;22.33;;;15.30;;
40629;SDS011;26329;40.388;-3.710;2024-02-23T14:04:18;19.10;;;14.40;;
40629;SDS011;26329;40.388;-3.710;2024-02-23T14:14:24;16.87;;;13.70;;
40629;SDS011;26329;40.388;-3.710;2024-02-23T14:24:27;17.00;;;13.97;;
40629;SDS011;26329;40.388;-3.710;2024-02-23T14:34:30;16.60;;;13.70;;
40629;SDS011;26329;40.388;-3.710;2024-02-23T14:44:34;17.50;;;14.03;;
40629;SDS011;26329;40.388;-3.710;2024-02-23T14:54:38;16.43;;;13.37;;
40629;SDS011;26329;40.388;-3.710;2024-02-23T15:04:41;17.40;;;14.00;;
40629;SDS011;26329;40.388;-3.710;2024-02-23T15:14:44;17.33;;;13.83;;
40629;SDS011;26329;40.388;-3.710;2024-02-23T15:24:47;16.73;;;13.50;;
40629;SDS011;26329;40.388;-3.710;2024-02-23T15:34:50;16.63;;;13.33;;
40629;SDS011;26329;40.388;-3.710;2024-02-23T15:44:53;16.00;;;13.30;;
40629;SDS011;26329;40.388;-3.710;2024-02-23T15:54:57;15.85;;;13.43;;
40629;SDS011;26329;40.388;-3.710;2024-02-23T16:05:02;17.27;;;13.70;;
40629;SDS011;26329;40.388;-3.710;2024-02-23T16:15:08;17.00;;;13.63;;
40629;SDS011;26329;40.388;-3.710;2024-02-23T16:25:09;15.27;;;12.97;;
40629;SDS011;26329;40.388;-3.710;2024-02-23T16:35:13;14.43;;;12.90;;
40629;SDS011;26329;40.388;-3.710;2024-02-23T16:45:19;14.33;;;12.67;;
40629;SDS011;26329;40.388;-3.710;2024-02-23T16:55:22;14.23;;;12.67;;
40629;SDS011;26329;40.388;-3.710;2024-02-23T17:05:25;15.07;;;13.17;;
40629;SDS011;26329;40.388;-3.710;2024-02-23T17:15:27;16.53;;;13.60;;
40629;SDS011;26329;40.388;-3.710;2024-02-23T17:25:31;15.77;;;13.30;;
40629;SDS011;26329;40.388;-3.710;2024-02-23T17:35:33;14.13;;;12.43;;
40629;SDS011;26329;40.388;-3.710;2024-02-23T17:45:36;14.27;;;12.80;;
40629;SDS011;26329;40.388;-3.710;2024-02-23T17:55:37;13.30;;;11.97;;
40629;SDS011;26329;40.388;-3.710;2024-02-23T18:05:39;13.53;;;12.17;;
40629;SDS011;26329;40.388;-3.710;2024-02-23T18:15:43;13.70;;;12.33;;
40629;SDS011;26329;40.388;-3.710;2024-02-23T18:25:44;13.77;;;12.33;;
40629;SDS011;26329;40.388;-3.710;2024-02-23T18:35:47;12.73;;;11.53;;
40629;SDS011;26329;40.388;-3.710;2024-02-23T18:45:50;11.97;;;10.90;;
40629;SDS011;26329;40.388;-3.710;2024-02-23T18:55:53;11.73;;;10.67;;
40629;SDS011;26329;40.388;-3.710;2024-02-23T19:05:55;12.10;;;11.00;;
40629;SDS011;26329;40.388;-3.710;2024-02-23T19:15:58;12.23;;;11.10;;
40629;SDS011;26329;40.388;-3.710;2024-02-23T19:26:00;12.63;;;11.40;;
40629;SDS011;26329;40.388;-3.710;2024-02-23T19:36:03;12.70;;;11.47;;
40629;SDS011;26329;40.388;-3.710;2024-02-23T19:46:06;12.37;;;11.20;;
40629;SDS011;26329;40.388;-3.710;2024-02-23T19:56:07;12.73;;;11.50;;
40629;SDS011;26329;40.388;-3.710;2024-02-23T20:06:11;12.80;;;11.57;;
40629;SDS011;26329;40.388;-3.710;2024-02-23T20:16:14;13.37;;;12.10;;
40629;SDS011;26329;40.388;-3.710;2024-02-23T20:26:16;12.73;;;11.50;;
40629;SDS011;26329;40.388;-3.710;2024-02-23T20:36:18;12.43;;;11.30;;
40629;SDS011;26329;40.388;-3.710;2024-02-23T20:46:23;12.17;;;11.03;;
40629;SDS011;26329;40.388;-3.710;2024-02-23T20:56:28;12.50;;;11.33;;
40629;SDS011;26329;40.388;-3.710;2024-02-23T21:06:32;12.93;;;11.70;;
40629;SDS011;26329;40.388;-3.710;2024-02-23T21:16:34;13.07;;;11.80;;
40629;SDS011;26329;40.388;-3.710;2024-02-23T21:26:35;13.47;;;12.10;;
40629;SDS011;26329;40.388;-3.710;2024-02-23T21:36:37;14.07;;;12.53;;
40629;SDS011;26329;40.388;-3.710;2024-02-23T21:46:38;13.90;;;12.47;;
40629;SDS011;26329;40.388;-3.710;2024-02-23T21:56:40;13.80;;;12.37;;
40629;SDS011;26329;40.388;-3.710;2024-02-23T22:06:41;13.80;;;12.37;;
40629;SDS011;26329;40.388;-3.710;2024-02-23T22:16:43;13.63;;;12.27;;
40629;SDS011;26329;40.388;-3.710;2024-02-23T22:26:46;13.33;;;12.00;;
40629;SDS011;26329;40.388;-3.710;2024-02-23T22:36:47;13.23;;;11.93;;
40629;SDS011;26329;40.388;-3.710;2024-02-23T22:46:49;13.37;;;12.00;;
40629;SDS011;26329;40.388;-3.710;2024-02-23T22:56:54;12.73;;;11.50;;
40629;SDS011;26329;40.388;-3.710;2024-02-23T23:06:55;12.97;;;11.70;;
40629;SDS011;26329;40.388;-3.710;2024-02-23T23:16:57;12.30;;;11.10;;
40629;SDS011;26329;40.388;-3.710;2024-02-23T23:27:00;12.73;;;11.50;;
40629;SDS011;26329;40.388;-3.710;2024-02-23T23:37:01;11.87;;;10.70;;
40629;SDS011;26329;40.388;-3.710;2024-02-23T23:47:03;11.50;;;10.43;;
40629;SDS011;26329;40.388;-3.710;2024-02-23T23:57:04;10.90;;;9.87;;
